createdAt,value
2018-07-21T00:01:29.861Z,15.23
2018-07-21T00:03:57.435Z,18.73
2018-07-21T00:06:24.970Z,17.00
2018-07-21T00:08:52.561Z,11.90
2018-07-21T00:11:20.132Z,14.83
2018-07-21T00:13:47.693Z,12.60
2018-07-21T00:16:15.224Z,12.23
2018-07-21T00:18:42.785Z,11.90
2018-07-21T00:21:10.329Z,12.20
2018-07-21T00:23:37.923Z,13.70
2018-07-21T00:26:05.459Z,12.93
2018-07-21T00:28:34.068Z,13.00
2018-07-21T00:31:01.608Z,9.80
2018-07-21T00:33:29.199Z,12.30
2018-07-21T00:35:56.761Z,9.63
2018-07-21T00:38:24.309Z,10.47
2018-07-21T00:40:51.864Z,12.57
2018-07-21T00:43:19.421Z,13.30
2018-07-21T00:45:46.953Z,12.90
2018-07-21T00:48:14.506Z,20.20
2018-07-21T00:50:42.048Z,11.00
2018-07-21T00:53:09.616Z,12.60
2018-07-21T00:55:38.131Z,13.53
2018-07-21T00:58:05.701Z,16.10
2018-07-21T01:00:34.013Z,11.03
2018-07-21T01:03:01.540Z,9.60
2018-07-21T01:05:29.866Z,14.10
2018-07-21T01:07:57.406Z,14.80
2018-07-21T01:10:24.977Z,13.70
2018-07-21T01:12:52.546Z,11.10
2018-07-21T01:15:20.086Z,16.83
2018-07-21T01:17:47.617Z,11.30
2018-07-21T01:20:15.174Z,11.10
2018-07-21T01:22:42.704Z,27.73
2018-07-21T01:25:11.277Z,12.50
2018-07-21T01:27:38.837Z,16.40
2018-07-21T01:30:06.367Z,14.87
2018-07-21T01:32:33.902Z,13.70
2018-07-21T01:35:01.458Z,8.57
2018-07-21T01:37:28.985Z,12.93
2018-07-21T01:39:57.310Z,9.40
2018-07-21T01:42:24.880Z,11.37
2018-07-21T01:44:52.439Z,11.40
2018-07-21T01:47:19.973Z,10.83
2018-07-21T01:49:47.529Z,11.33
2018-07-21T01:52:15.177Z,8.40
2018-07-21T01:54:44.676Z,11.20
2018-07-21T01:57:12.213Z,11.73
2018-07-21T01:59:39.771Z,11.77
2018-07-21T02:02:07.305Z,9.80
2018-07-21T02:04:35.825Z,12.17
2018-07-21T02:07:03.361Z,9.53
2018-07-21T02:09:31.686Z,10.27
2018-07-21T02:11:59.249Z,16.27
2018-07-21T02:14:26.810Z,10.80
2018-07-21T02:16:54.336Z,10.75
2018-07-21T02:19:21.893Z,14.60
2018-07-21T02:21:49.453Z,14.83
2018-07-21T02:24:17.017Z,14.60
2018-07-21T02:26:45.522Z,10.90
2018-07-21T02:29:14.025Z,20.23
2018-07-21T02:31:41.589Z,17.63
2018-07-21T02:34:09.881Z,9.00
2018-07-21T02:36:39.389Z,14.73
2018-07-21T02:39:07.889Z,13.50
2018-07-21T02:41:35.448Z,11.43
2018-07-21T02:44:02.980Z,11.80
2018-07-21T02:46:31.488Z,9.60
2018-07-21T02:48:59.013Z,9.13
2018-07-21T02:51:26.561Z,12.47
2018-07-21T02:53:56.117Z,15.67
2018-07-21T02:56:23.681Z,12.37
2018-07-21T02:58:51.242Z,12.90
2018-07-21T03:01:19.753Z,13.03
2018-07-21T03:03:47.305Z,11.50
2018-07-21T03:06:14.857Z,11.23
2018-07-21T03:08:43.173Z,10.70
2018-07-21T03:11:10.714Z,11.23
2018-07-21T03:13:38.269Z,20.93
2018-07-21T03:16:05.829Z,10.97
2018-07-21T03:18:33.381Z,11.40
2018-07-21T03:21:00.914Z,9.37
2018-07-21T03:23:28.474Z,10.27
2018-07-21T03:25:56.030Z,11.07
2018-07-21T03:28:26.330Z,16.73
2018-07-21T03:30:53.900Z,10.03
2018-07-21T03:33:21.442Z,9.50
2018-07-21T03:35:48.973Z,21.00
2018-07-21T03:38:16.501Z,10.33
2018-07-21T03:40:44.061Z,14.97
2018-07-21T03:43:11.639Z,8.80
2018-07-21T03:45:39.265Z,10.20
2018-07-21T03:48:06.828Z,11.23
2018-07-21T03:50:34.510Z,8.30
2018-07-21T03:53:03.033Z,8.37
2018-07-21T03:55:30.561Z,12.63
2018-07-21T03:57:58.117Z,9.73
2018-07-21T04:00:25.700Z,10.77
2018-07-21T04:02:53.236Z,9.93
2018-07-21T04:05:20.761Z,9.57
2018-07-21T04:07:50.277Z,9.30
2018-07-21T04:10:17.837Z,12.27
2018-07-21T04:12:45.392Z,9.20
2018-07-21T04:15:12.937Z,8.23
2018-07-21T04:17:40.500Z,8.47
2018-07-21T04:20:08.036Z,9.27
2018-07-21T04:22:38.326Z,15.83
2018-07-21T04:25:05.909Z,11.93
2018-07-21T04:27:33.456Z,11.03
2018-07-21T04:30:01.012Z,9.50
2018-07-21T04:32:28.544Z,12.70
2018-07-21T04:34:56.101Z,10.20
2018-07-21T04:37:23.642Z,11.73
2018-07-21T04:39:51.293Z,19.40
2018-07-21T04:42:18.890Z,10.57
2018-07-21T04:44:46.461Z,8.77
2018-07-21T04:47:15.000Z,11.23
2018-07-21T04:49:42.559Z,12.27
2018-07-21T04:52:10.140Z,11.60
2018-07-21T04:54:37.709Z,13.43
2018-07-21T04:57:05.257Z,18.50
2018-07-21T04:59:33.777Z,10.00
2018-07-21T05:02:01.355Z,13.73
2018-07-21T05:04:28.918Z,12.77
2018-07-21T05:06:56.449Z,15.50
2018-07-21T05:09:24.012Z,10.57
2018-07-21T05:11:51.581Z,14.93
2018-07-21T05:14:19.145Z,10.30
2018-07-21T05:16:46.684Z,11.47
2018-07-21T05:19:14.242Z,16.47
2018-07-21T05:21:41.809Z,14.07
2018-07-21T05:24:09.464Z,11.37
2018-07-21T05:26:36.988Z,16.40
2018-07-21T05:29:05.305Z,23.63
2018-07-21T05:31:33.800Z,9.47
2018-07-21T05:34:01.357Z,16.97
2018-07-21T05:36:28.892Z,13.40
2018-07-21T05:38:56.417Z,15.40
2018-07-21T05:41:24.745Z,14.23
2018-07-21T05:43:52.278Z,16.00
2018-07-21T05:46:20.826Z,16.73
2018-07-21T05:48:48.357Z,13.63
2018-07-21T05:51:15.920Z,13.13
2018-07-21T05:53:43.449Z,10.70
2018-07-21T05:56:11.004Z,10.10
2018-07-21T05:58:38.572Z,16.13
2018-07-21T06:01:06.105Z,11.10
2018-07-21T06:03:33.690Z,10.33
2018-07-21T06:06:01.249Z,8.03
2018-07-21T06:08:28.779Z,12.53
2018-07-21T06:10:56.357Z,10.70
2018-07-21T06:13:24.146Z,15.93
2018-07-21T06:15:51.706Z,10.90
2018-07-21T06:18:19.232Z,8.37
2018-07-21T06:20:46.766Z,10.33
2018-07-21T06:23:14.328Z,9.20
2018-07-21T06:25:41.894Z,11.50
2018-07-21T06:28:09.516Z,9.17
2018-07-21T06:30:37.000Z,9.63
2018-07-21T06:33:04.558Z,11.20
2018-07-21T06:35:32.174Z,10.47
2018-07-21T06:38:00.635Z,8.30
2018-07-21T06:40:28.205Z,11.30
2018-07-21T06:42:55.731Z,7.33
2018-07-21T06:45:23.290Z,6.83
2018-07-21T06:47:50.820Z,7.70
2018-07-21T06:50:18.360Z,7.40
2018-07-21T06:52:45.922Z,9.87
2018-07-21T06:55:14.406Z,9.90
2018-07-21T06:57:41.973Z,13.30
2018-07-21T07:00:10.483Z,13.47
2018-07-21T07:02:38.809Z,11.80
2018-07-21T07:05:06.340Z,6.93
2018-07-21T07:07:34.657Z,7.17
2018-07-21T07:10:02.213Z,8.00
2018-07-21T07:12:29.741Z,5.60
2018-07-21T07:14:57.293Z,5.17
2018-07-21T07:17:26.841Z,10.10
2018-07-21T07:19:54.368Z,9.10
2018-07-21T07:22:21.921Z,6.47
2018-07-21T07:24:49.449Z,8.17
2018-07-21T07:27:17.000Z,5.37
2018-07-21T07:29:45.531Z,9.63
2018-07-21T07:32:13.065Z,5.75
2018-07-21T07:34:40.624Z,5.00
2018-07-21T07:37:08.182Z,6.43
2018-07-21T07:39:35.745Z,11.17
2018-07-21T07:42:03.298Z,4.90
2018-07-21T07:44:32.793Z,5.40
2018-07-21T07:47:00.358Z,6.43
2018-07-21T07:49:27.910Z,5.17
2018-07-21T07:51:55.472Z,4.53
2018-07-21T07:54:23.004Z,6.23
2018-07-21T07:56:52.294Z,4.67
2018-07-21T07:59:19.825Z,5.70
2018-07-21T08:01:47.362Z,3.70
2018-07-21T08:04:14.912Z,4.50
2018-07-21T08:06:42.471Z,3.80
2018-07-21T08:09:11.984Z,6.83
2018-07-21T08:11:40.444Z,6.30
2018-07-21T08:14:08.159Z,4.77
2018-07-21T08:16:35.706Z,8.90
2018-07-21T08:19:03.237Z,6.90
2018-07-21T08:21:30.793Z,7.43
2018-07-21T08:23:58.321Z,4.07
2018-07-21T08:26:25.848Z,3.77
2018-07-21T08:28:53.414Z,4.00
2018-07-21T08:31:20.947Z,5.93
2018-07-21T08:33:48.496Z,3.27
2018-07-21T08:36:16.022Z,5.10
2018-07-21T08:38:43.581Z,17.53
2018-07-21T08:41:12.068Z,5.07
2018-07-21T08:43:39.681Z,3.20
2018-07-21T08:46:07.237Z,5.50
2018-07-21T08:48:35.529Z,5.67
2018-07-21T08:51:03.085Z,4.73
2018-07-21T08:53:30.648Z,3.67
2018-07-21T08:55:59.196Z,4.07
2018-07-21T08:58:26.732Z,3.73
2018-07-21T09:00:55.285Z,4.30
2018-07-21T09:03:22.861Z,5.63
2018-07-21T09:05:50.459Z,6.70
2018-07-21T09:08:19.167Z,3.67
2018-07-21T09:10:46.697Z,6.70
2018-07-21T09:13:15.047Z,4.37
2018-07-21T09:15:42.578Z,4.53
2018-07-21T09:18:10.105Z,4.97
2018-07-21T09:20:37.661Z,5.57
2018-07-21T09:23:05.217Z,4.27
2018-07-21T09:25:32.745Z,5.00
2018-07-21T09:28:00.321Z,3.60
2018-07-21T09:30:27.881Z,5.17
2018-07-21T09:32:56.201Z,5.73
2018-07-21T09:35:23.725Z,7.77
2018-07-21T09:37:51.389Z,5.27
2018-07-21T09:40:19.293Z,3.10
2018-07-21T09:42:46.848Z,4.33
2018-07-21T09:45:15.326Z,8.77
2018-07-21T09:47:44.880Z,4.20
2018-07-21T09:50:12.437Z,3.13
2018-07-21T09:52:40.925Z,8.23
2018-07-21T09:55:08.478Z,4.27
2018-07-21T09:57:36.993Z,6.30
2018-07-21T10:00:04.553Z,6.83
2018-07-21T10:02:32.106Z,4.00
2018-07-21T10:04:59.908Z,7.10
2018-07-21T10:07:27.433Z,3.80
2018-07-21T10:09:54.981Z,3.77
2018-07-21T10:12:22.505Z,3.80
2018-07-21T10:14:50.111Z,2.60
2018-07-21T10:17:18.625Z,5.53
2018-07-21T10:19:46.185Z,1.90
2018-07-21T10:22:14.553Z,3.80
2018-07-21T10:24:42.032Z,3.57
2018-07-21T10:27:11.380Z,3.30
2018-07-21T10:29:38.908Z,2.50
2018-07-21T10:32:08.410Z,2.90
2018-07-21T10:34:35.962Z,3.97
2018-07-21T10:37:03.488Z,4.43
2018-07-21T10:39:31.040Z,3.33
2018-07-21T10:42:00.292Z,2.73
2018-07-21T10:44:28.142Z,4.80
2018-07-21T10:46:56.425Z,7.43
2018-07-21T10:49:24.248Z,8.73
2018-07-21T10:51:52.540Z,3.57
2018-07-21T10:54:21.134Z,4.33
2018-07-21T10:56:49.281Z,3.63
2018-07-21T10:59:17.851Z,17.07
2018-07-21T11:01:45.393Z,5.03
2018-07-21T11:04:12.920Z,2.97
2018-07-21T11:06:40.476Z,3.43
2018-07-21T11:09:08.001Z,2.83
2018-07-21T11:11:35.529Z,6.33
2018-07-21T11:14:03.124Z,3.80
2018-07-21T11:16:30.678Z,4.40
2018-07-21T11:18:58.244Z,5.07
2018-07-21T11:21:25.803Z,2.70
2018-07-21T11:23:53.330Z,8.83
2018-07-21T11:26:20.888Z,4.70
2018-07-21T11:28:48.701Z,2.77
2018-07-21T11:31:16.228Z,4.80
2018-07-21T11:33:43.989Z,3.23
2018-07-21T11:36:11.752Z,5.43
2018-07-21T11:38:39.126Z,3.97
2018-07-21T11:41:07.618Z,3.60
2018-07-21T11:43:35.942Z,8.23
2018-07-21T11:46:04.615Z,3.33
2018-07-21T11:48:32.166Z,2.70
2018-07-21T11:50:59.694Z,5.60
2018-07-21T11:53:27.245Z,4.10
2018-07-21T11:55:54.801Z,2.83
2018-07-21T11:58:22.358Z,2.90
2018-07-21T12:00:50.002Z,2.77
2018-07-21T12:03:17.552Z,3.60
2018-07-21T12:05:45.161Z,3.20
2018-07-21T12:08:12.688Z,4.10
2018-07-21T12:10:40.216Z,4.63
2018-07-21T12:13:07.773Z,3.00
2018-07-21T12:15:35.345Z,2.57
2018-07-21T12:18:02.897Z,3.03
2018-07-21T12:20:30.442Z,3.87
2018-07-21T12:22:57.996Z,4.03
2018-07-21T12:25:25.528Z,4.37
2018-07-21T12:27:53.097Z,2.70
2018-07-21T12:30:20.642Z,4.50
2018-07-21T12:32:48.326Z,7.20
2018-07-21T12:35:15.852Z,3.30
2018-07-21T12:37:44.174Z,4.70
2018-07-21T12:40:11.801Z,2.90
2018-07-21T12:42:39.329Z,4.00
2018-07-21T12:45:07.551Z,5.37
2018-07-21T12:47:35.192Z,2.43
2018-07-21T12:50:02.738Z,2.40
2018-07-21T12:52:30.298Z,2.73
2018-07-21T12:54:57.823Z,2.77
2018-07-21T12:57:25.380Z,3.07
2018-07-21T12:59:52.911Z,2.30
2018-07-21T13:02:21.440Z,4.30
2018-07-21T13:04:48.994Z,3.60
2018-07-21T13:07:17.316Z,4.00
2018-07-21T13:09:45.011Z,4.37
2018-07-21T13:12:12.520Z,3.13
2018-07-21T13:14:40.085Z,2.80
2018-07-21T13:17:07.644Z,4.57
2018-07-21T13:19:35.173Z,5.10
2018-07-21T13:22:02.739Z,6.53
2018-07-21T13:24:30.269Z,2.97
2018-07-21T13:26:57.836Z,3.17
2018-07-21T13:29:25.392Z,2.67
2018-07-21T13:31:52.929Z,2.63
2018-07-21T13:34:20.470Z,2.97
2018-07-21T13:36:49.017Z,3.53
2018-07-21T13:39:16.541Z,2.60
2018-07-21T13:41:46.024Z,3.83
2018-07-21T13:44:14.363Z,2.30
2018-07-21T13:46:41.905Z,2.97
2018-07-21T13:49:09.968Z,5.03
2018-07-21T13:51:37.517Z,2.90
2018-07-21T13:54:05.136Z,4.57
2018-07-21T13:56:32.637Z,3.43
2018-07-21T13:59:00.262Z,2.43
2018-07-21T14:01:27.821Z,3.20
2018-07-21T14:03:56.145Z,2.57
2018-07-21T14:06:23.686Z,3.97
2018-07-21T14:08:51.449Z,3.80
2018-07-21T14:11:19.959Z,3.97
2018-07-21T14:13:47.508Z,3.57
2018-07-21T14:16:15.046Z,4.03
2018-07-21T14:18:42.609Z,5.00
2018-07-21T14:21:10.140Z,4.70
2018-07-21T14:23:37.716Z,3.30
2018-07-21T14:26:05.274Z,4.30
2018-07-21T14:28:32.801Z,4.60
2018-07-21T14:31:00.373Z,4.90
2018-07-21T14:33:27.942Z,3.77
2018-07-21T14:35:55.539Z,3.03
2018-07-21T14:38:24.087Z,2.60
2018-07-21T14:40:51.616Z,4.73
2018-07-21T14:43:19.144Z,7.00
2018-07-21T14:45:47.460Z,4.70
2018-07-21T14:48:15.952Z,4.00
2018-07-21T14:50:43.512Z,4.47
2018-07-21T14:53:11.040Z,4.10
2018-07-21T14:55:39.592Z,3.40
2018-07-21T14:58:07.144Z,6.70
2018-07-21T15:00:34.669Z,5.87
2018-07-21T15:03:02.192Z,6.50
2018-07-21T15:05:29.749Z,3.83
2018-07-21T15:07:57.278Z,8.40
2018-07-21T15:10:24.862Z,5.53
2018-07-21T15:12:52.389Z,6.10
2018-07-21T15:15:19.951Z,3.47
2018-07-21T15:17:47.532Z,3.63
2018-07-21T15:20:15.056Z,6.30
2018-07-21T15:22:42.609Z,4.77
2018-07-21T15:25:10.220Z,5.40
2018-07-21T15:27:37.776Z,5.50
2018-07-21T15:30:05.309Z,5.40
2018-07-21T15:32:32.866Z,5.10
2018-07-21T15:35:00.422Z,6.53
2018-07-21T15:37:27.961Z,4.80
2018-07-21T15:39:55.764Z,13.00
2018-07-21T15:42:23.245Z,5.80
2018-07-21T15:44:50.811Z,3.53
2018-07-21T15:47:18.342Z,4.57
2018-07-21T15:49:46.665Z,5.83
2018-07-21T15:52:14.221Z,5.93
2018-07-21T15:54:41.780Z,4.77
2018-07-21T15:57:10.085Z,7.10
2018-07-21T15:59:37.665Z,24.77
2018-07-21T16:02:05.229Z,47.03
2018-07-21T16:04:32.791Z,6.90
2018-07-21T16:07:00.317Z,5.10
2018-07-21T16:09:27.918Z,5.37
2018-07-21T16:11:55.509Z,6.27
2018-07-21T16:14:23.796Z,4.53
2018-07-21T16:16:51.358Z,7.70
2018-07-21T16:19:18.883Z,4.90
2018-07-21T16:21:46.440Z,5.10
2018-07-21T16:24:13.971Z,5.43
2018-07-21T16:26:41.528Z,6.23
2018-07-21T16:29:09.058Z,5.70
2018-07-21T16:31:36.584Z,7.13
2018-07-21T16:34:04.136Z,6.73
2018-07-21T16:36:32.466Z,6.93
2018-07-21T16:39:00.020Z,4.70
2018-07-21T16:41:27.786Z,4.60
2018-07-21T16:43:55.351Z,10.00
2018-07-21T16:46:22.971Z,8.00
2018-07-21T16:48:51.225Z,7.57
2018-07-21T16:51:18.781Z,14.80
2018-07-21T16:53:46.315Z,4.70
2018-07-21T16:56:13.871Z,5.50
2018-07-21T16:58:41.396Z,5.27
2018-07-21T17:01:08.930Z,6.37
2018-07-21T17:03:36.492Z,8.30
2018-07-21T17:06:05.032Z,6.07
2018-07-21T17:08:33.354Z,8.07
2018-07-21T17:11:01.845Z,8.00
2018-07-21T17:13:31.349Z,5.53
2018-07-21T17:15:58.921Z,6.13
2018-07-21T17:18:26.463Z,5.73
2018-07-21T17:20:54.039Z,4.80
2018-07-21T17:23:21.573Z,8.50
2018-07-21T17:25:49.119Z,10.80
2018-07-21T17:28:16.676Z,7.43
2018-07-21T17:30:44.202Z,9.20
2018-07-21T17:33:11.768Z,6.50
2018-07-21T17:35:39.341Z,5.17
2018-07-21T17:38:08.825Z,5.50
2018-07-21T17:40:36.372Z,5.50
2018-07-21T17:43:03.900Z,9.00
2018-07-21T17:45:31.456Z,6.30
2018-07-21T17:47:59.049Z,7.37
2018-07-21T17:50:26.622Z,5.70
2018-07-21T17:52:54.185Z,5.97
2018-07-21T17:55:21.720Z,7.30
2018-07-21T17:57:49.280Z,8.57
2018-07-21T18:00:16.821Z,4.67
2018-07-21T18:02:44.376Z,5.70
2018-07-21T18:05:11.910Z,7.00
2018-07-21T18:07:39.460Z,5.67
2018-07-21T18:10:07.578Z,12.77
2018-07-21T18:12:35.114Z,7.90
2018-07-21T18:15:02.677Z,8.83
2018-07-21T18:17:32.164Z,5.83
2018-07-21T18:19:59.757Z,8.60
2018-07-21T18:22:27.280Z,8.17
2018-07-21T18:24:55.604Z,12.60
2018-07-21T18:27:25.110Z,7.20
2018-07-21T18:29:52.662Z,6.17
2018-07-21T18:32:22.266Z,11.13
2018-07-21T18:34:49.814Z,7.33
2018-07-21T18:37:17.380Z,8.70
2018-07-21T18:39:44.931Z,12.40
2018-07-21T18:42:13.416Z,9.57
2018-07-21T18:44:40.972Z,14.77
2018-07-21T18:47:10.062Z,10.43
2018-07-21T18:49:37.617Z,11.60
2018-07-21T18:52:05.150Z,9.80
2018-07-21T18:54:34.717Z,8.30
2018-07-21T18:57:02.245Z,8.93
2018-07-21T18:59:29.829Z,14.00
2018-07-21T19:01:57.388Z,9.00
2018-07-21T19:04:24.995Z,13.30
2018-07-21T19:06:53.265Z,9.20
2018-07-21T19:09:20.825Z,10.67
2018-07-21T19:11:48.358Z,16.30
2018-07-21T19:14:16.685Z,6.90
2018-07-21T19:16:44.252Z,9.10
2018-07-21T19:19:11.825Z,7.40
2018-07-21T19:21:39.398Z,6.97
2018-07-21T19:24:06.963Z,6.20
2018-07-21T19:29:28.981Z,7.43
2018-07-21T19:31:56.591Z,7.90
2018-07-21T19:34:24.196Z,9.40
2018-07-21T19:36:51.749Z,8.90
2018-07-21T19:39:19.365Z,10.47
2018-07-21T19:41:46.959Z,5.30
2018-07-21T19:44:14.534Z,10.50
2018-07-21T19:46:42.124Z,42.47
2018-07-21T19:49:09.669Z,37.70
2018-07-21T19:51:37.240Z,25.63
2018-07-21T19:54:06.782Z,24.30
2018-07-21T19:56:34.358Z,37.50
2018-07-21T19:59:02.029Z,25.97
2018-07-21T20:01:29.580Z,23.10
2018-07-21T20:03:57.234Z,23.90
2018-07-21T20:06:24.757Z,32.40
2018-07-21T20:08:52.392Z,19.40
2018-07-21T20:11:19.965Z,26.90
2018-07-21T20:13:47.559Z,19.70
2018-07-21T20:16:16.062Z,17.20
2018-07-21T20:18:43.636Z,17.73
2018-07-21T20:21:11.994Z,16.87
2018-07-21T20:23:39.548Z,20.80
2018-07-21T20:26:07.086Z,28.80
2018-07-21T20:28:34.656Z,18.90
2018-07-21T20:31:02.249Z,19.80
2018-07-21T20:33:29.834Z,14.70
2018-07-21T20:35:57.381Z,20.07
2018-07-21T20:38:24.920Z,19.10
2018-07-21T20:40:52.486Z,16.83
2018-07-21T20:43:20.056Z,15.33
2018-07-21T20:45:48.565Z,13.23
2018-07-21T20:48:16.177Z,13.47
2018-07-21T20:50:44.626Z,15.30
2018-07-21T20:53:12.193Z,13.97
2018-07-21T20:55:39.765Z,16.10
2018-07-21T20:58:08.094Z,15.17
2018-07-21T21:00:36.584Z,17.93
2018-07-21T21:03:04.231Z,13.43
2018-07-21T21:05:31.804Z,13.97
2018-07-21T21:07:59.340Z,17.30
2018-07-21T21:10:26.901Z,14.30
2018-07-21T21:12:54.437Z,15.50
2018-07-21T21:15:21.996Z,13.43
2018-07-21T21:17:49.562Z,14.50
2018-07-21T21:20:17.092Z,13.80
2018-07-21T21:22:44.673Z,12.00
2018-07-21T21:25:12.237Z,15.73
2018-07-21T21:27:41.725Z,13.77
2018-07-21T21:30:10.222Z,20.30
2018-07-21T21:32:37.781Z,16.10
2018-07-21T21:35:05.361Z,13.77
2018-07-21T21:37:32.897Z,16.07
2018-07-21T21:40:00.457Z,16.07
2018-07-21T21:42:28.061Z,14.93
2018-07-21T21:44:55.629Z,16.63
2018-07-21T21:47:23.164Z,12.63
2018-07-21T21:49:50.736Z,18.50
2018-07-21T21:52:18.273Z,14.53
2018-07-21T21:54:46.605Z,16.73
2018-07-21T21:57:14.136Z,14.23
2018-07-21T21:59:41.697Z,15.37
2018-07-21T22:02:09.265Z,13.33
2018-07-21T22:04:36.959Z,14.10
2018-07-21T22:07:04.430Z,14.50
2018-07-21T22:09:32.003Z,11.77
2018-07-21T22:12:01.285Z,12.90
2018-07-21T22:14:28.860Z,12.40
2018-07-21T22:16:56.434Z,13.97
2018-07-21T22:19:24.018Z,14.67
2018-07-21T22:21:51.574Z,15.93
2018-07-21T22:24:19.150Z,13.60
2018-07-21T22:26:46.727Z,16.27
2018-07-21T22:29:15.249Z,19.73
2018-07-21T22:31:42.827Z,13.40
2018-07-21T22:34:10.365Z,13.80
2018-07-21T22:36:38.981Z,12.80
2018-07-21T22:39:06.681Z,12.97
2018-07-21T22:41:35.177Z,17.60
2018-07-21T22:44:02.761Z,16.07
2018-07-21T22:46:30.329Z,14.10
2018-07-21T22:48:57.885Z,14.10
2018-07-21T22:51:25.425Z,11.80
2018-07-21T22:53:53.032Z,16.60
2018-07-21T22:56:20.599Z,12.83
2018-07-21T22:58:48.132Z,17.60
2018-07-21T23:01:15.742Z,18.50
2018-07-21T23:03:43.273Z,15.37
2018-07-21T23:06:10.833Z,13.60
2018-07-21T23:08:40.077Z,18.20
2018-07-21T23:11:08.817Z,14.10
2018-07-21T23:13:37.231Z,13.10
2018-07-21T23:16:04.766Z,14.07
2018-07-21T23:18:32.331Z,13.70
2018-07-21T23:20:59.869Z,14.60
2018-07-21T23:23:27.436Z,14.53
2018-07-21T23:25:54.978Z,12.93
2018-07-21T23:28:22.544Z,16.63
2018-07-21T23:30:50.129Z,18.77
2018-07-21T23:33:18.657Z,13.33
2018-07-21T23:35:46.188Z,12.67
2018-07-21T23:38:13.745Z,13.17
2018-07-21T23:40:42.269Z,13.07
2018-07-21T23:43:10.109Z,15.53
2018-07-21T23:45:37.654Z,16.23
2018-07-21T23:48:05.214Z,13.23
2018-07-21T23:50:32.756Z,14.13
2018-07-21T23:53:00.294Z,14.97
2018-07-21T23:55:27.860Z,12.27
2018-07-21T23:57:55.398Z,13.93
